Terminal Aerodrome Forecast
Issued by NWS

Home | Current Version | Previous Version | Text Only | Print | Product List | Glossary Off
Versions: 1 2 3 4 5 6 7 8 9 10 11 12 13 14 15 16 17 18 19 20 21

000
FTUS43 KBIS 040534
TAFDIK
TAF
KDIK 040534Z 0406/0506 13008KT 4SM FU SKC
     FM041600 17012KT P6SM SCT070
     FM042100 20014KT P6SM SKC
     FM050300 18010KT P6SM SCT050 SCT100=

USA.gov is the U.S. government's official web portal to all federal, state and local government web resources and services.